Strona główna
METAR-TAF:

METAR-TAF

Lotnisko :

Port lotniczy Baia Mare

Baia Mare, Rumunia

Szerokość geograficzna: 47-40N, Długość geograficzna: 023-35E, wysokość: 218 m

Aktualna obserwacja pogody

Raport powstał 39 minut temu, godzina 01:00 UTC
Wiatr 6 kt od wschód
Temperatura 12°C
Wilgotność 58%
Ciśnienie 1015 hPa
Widzialność 10 km lub więcej

METAR: LRBM 130100Z AUTO 08006KT 9999 FEW120/// BKN150/// 12/04 Q1015

czas: 04:39 (01:39 UTC)

Prognoza

Raport powstał 11 godziny i 39 minut temu, godzina 14:00 UTC
Prognoza ważna od 12 godzina 15 UTC do 13 godzina 00 UTC
Wiatr 4 kt z kierunków zmiennych
Widzialność 10 km lub więcej
Brak chmur poniżej 1500 m i brak chmur cumulonimbus

TAF: LRBM 121400Z 1215/1300 VRB04KT CAVOK

Obserwacja i prognoza pogody dla ponad 4000 lotnisk (raport METAR i TAF).

Dostępne stacje oznaczono żółtymi i czerwonymi punktami na mapie.

Najedź kursorem aby zobaczyć nazwę stacji.

Kliknij aby zobaczyć obserwacje i prognozy pogody.

Aby zmienić mapę: kliknij na zielony przycisk z czarnym krzyżykiem, aby powiększyć; na zielony przycisk z myślnikiem, aby pomniejszyć; na zielone strzałki, aby przejść do map sąsiednich.


METAR-TAF: